createdAt,value
2023-02-20T00:02:16.444Z,96122.34
2023-02-20T00:05:02.090Z,96130.38
2023-02-20T00:07:48.180Z,96130.91
2023-02-20T00:10:34.464Z,96132.28
2023-02-20T00:13:20.630Z,96122.31
2023-02-20T00:16:06.874Z,96127.66
2023-02-20T00:18:52.673Z,96117.47
2023-02-20T00:21:45.587Z,96116.94
2023-02-20T00:24:31.646Z,96109.69
2023-02-20T00:27:18.966Z,96112.13
2023-02-20T00:30:05.958Z,96115.88
2023-02-20T00:32:53.810Z,96121.25
2023-02-20T00:35:43.610Z,96114.78
2023-02-20T00:38:29.728Z,96119.88
2023-02-20T00:41:17.992Z,96131.41
2023-02-20T00:44:03.771Z,96130.34
2023-02-20T00:46:49.859Z,96117.72
2023-02-20T00:49:35.440Z,96113.13
2023-02-20T00:52:28.324Z,96121.16
2023-02-20T00:55:15.669Z,96129.78
2023-02-20T00:58:01.682Z,96126.00
2023-02-20T01:00:47.418Z,96129.78
2023-02-20T01:03:33.450Z,96133.03
2023-02-20T01:06:19.281Z,96128.19
2023-02-20T01:09:05.257Z,96128.72
2023-02-20T01:11:51.074Z,96129.78
2023-02-20T01:14:37.084Z,96120.38
2023-02-20T01:17:23.074Z,96122.28
2023-02-20T01:20:09.011Z,96127.09
2023-02-20T01:22:55.179Z,96134.84
2023-02-20T01:25:41.164Z,96141.56
2023-02-20T01:28:28.806Z,96145.03
2023-02-20T01:31:14.488Z,96139.16
2023-02-20T01:34:01.272Z,96136.22
2023-02-20T01:36:52.773Z,96146.94
2023-02-20T01:39:38.885Z,96130.88
2023-02-20T01:42:25.939Z,96119.06
2023-02-20T01:45:23.915Z,96124.44
2023-02-20T01:48:23.703Z,96114.75
2023-02-20T01:51:09.753Z,96113.13
2023-02-20T01:53:56.947Z,96105.31
2023-02-20T01:56:43.828Z,96112.59
2023-02-20T01:59:33.213Z,96106.38
2023-02-20T02:02:20.373Z,96116.84
2023-02-20T02:05:08.116Z,96122.75
2023-02-20T02:07:54.101Z,96127.59
2023-02-20T02:10:49.646Z,96125.97
2023-02-20T02:13:37.982Z,96123.03
2023-02-20T02:16:51.806Z,96123.56
2023-02-20T02:19:40.632Z,96137.25
2023-02-20T02:23:03.847Z,96142.63
2023-02-20T02:25:57.074Z,96139.69
2023-02-20T02:29:03.423Z,96149.91
2023-02-20T02:32:11.373Z,96150.13
2023-02-20T02:35:13.413Z,96165.19
2023-02-20T02:38:12.383Z,96172.97
2023-02-20T02:41:12.867Z,96173.78
2023-02-20T02:44:11.677Z,96190.41
2023-02-20T02:47:09.851Z,96182.34
2023-02-20T02:50:32.199Z,96185.56
2023-02-20T02:53:18.925Z,96185.03
2023-02-20T02:56:21.685Z,96174.28
2023-02-20T02:59:12.518Z,96191.22
2023-02-20T03:02:06.336Z,96194.19
2023-02-20T03:04:56.192Z,96191.50
2023-02-20T03:07:43.061Z,96204.41
2023-02-20T03:10:32.247Z,96209.78
2023-02-20T03:13:19.064Z,96193.66
2023-02-20T03:16:07.033Z,96198.50
2023-02-20T03:18:58.579Z,96207.06
2023-02-20T03:21:46.370Z,96208.69
2023-02-20T03:24:33.431Z,96202.50
2023-02-20T03:27:24.816Z,96207.09
2023-02-20T03:30:42.232Z,96228.03
2023-02-20T03:33:54.332Z,96224.53
2023-02-20T03:37:16.100Z,96225.88
2023-02-20T03:40:26.037Z,96225.81
2023-02-20T03:43:25.187Z,96219.34
2023-02-20T03:46:19.104Z,96227.41
2023-02-20T03:49:14.084Z,96230.84
2023-02-20T03:52:03.372Z,96211.81
2023-02-20T03:54:57.639Z,96227.91
2023-02-20T03:57:51.677Z,96224.91
2023-02-20T04:00:39.601Z,96235.09
2023-02-20T04:03:28.904Z,96244.78
2023-02-20T04:06:17.176Z,96240.72
2023-02-20T04:09:16.448Z,96227.75
2023-02-20T04:12:35.259Z,96261.06
2023-02-20T04:15:22.569Z,96257.31
2023-02-20T04:18:11.850Z,96259.47
2023-02-20T04:21:01.111Z,96265.63
2023-02-20T04:24:05.518Z,96279.31
2023-02-20T04:26:51.272Z,96278.25
2023-02-20T04:29:40.403Z,96273.16
2023-02-20T04:32:26.497Z,96284.16
2023-02-20T04:35:18.124Z,96278.78
2023-02-20T04:38:05.779Z,96276.09
2023-02-20T04:40:52.989Z,96280.91
2023-02-20T04:43:41.636Z,96277.16
2023-02-20T04:46:29.419Z,96274.47
2023-02-20T04:49:15.405Z,96281.97
2023-02-20T04:52:06.802Z,96272.88
2023-02-20T04:54:52.772Z,96277.72
2023-02-20T04:57:40.171Z,96284.72
2023-02-20T05:00:28.091Z,96308.34
2023-02-20T05:03:13.694Z,96313.47
2023-02-20T05:05:59.399Z,96311.59
2023-02-20T05:08:45.104Z,96321.78
2023-02-20T05:11:30.578Z,96306.22
2023-02-20T05:14:16.948Z,96302.97
2023-02-20T05:17:02.601Z,96309.97
2023-02-20T05:19:48.441Z,96321.22
2023-02-20T05:22:34.200Z,96330.63
2023-02-20T05:25:20.313Z,96336.25
2023-02-20T05:28:06.099Z,96349.66
2023-02-20T05:30:52.264Z,96335.69
2023-02-20T05:33:37.995Z,96340.00
2023-02-20T05:36:23.814Z,96341.88
2023-02-20T05:39:09.575Z,96338.38
2023-02-20T05:41:55.873Z,96340.53
2023-02-20T05:44:42.335Z,96345.91
2023-02-20T05:47:28.133Z,96333.56
2023-02-20T05:50:13.840Z,96349.44
2023-02-20T05:52:59.600Z,96350.22
2023-02-20T05:55:49.731Z,96351.84
2023-02-20T05:58:36.073Z,96348.66
2023-02-20T06:01:26.897Z,96352.97
2023-02-20T06:04:12.742Z,96358.34
2023-02-20T06:06:58.892Z,96361.03
2023-02-20T06:09:45.357Z,96358.41
2023-02-20T06:12:33.272Z,96361.91
2023-02-20T06:15:19.178Z,96377.81
2023-02-20T06:18:04.962Z,96383.50
2023-02-20T06:20:50.641Z,96377.41
2023-02-20T06:23:40.386Z,96385.47
2023-02-20T06:26:26.084Z,96378.53
2023-02-20T06:29:13.213Z,96396.31
2023-02-20T06:32:00.197Z,96389.38
2023-02-20T06:34:46.536Z,96391.59
2023-02-20T06:37:32.641Z,96401.81
2023-02-20T06:40:18.433Z,96400.25
2023-02-20T06:43:06.441Z,96400.81
2023-02-20T06:45:52.147Z,96402.47
2023-02-20T06:48:50.097Z,96405.19
2023-02-20T06:51:36.842Z,96402.50
2023-02-20T06:54:22.457Z,96407.09
2023-02-20T06:57:08.183Z,96403.09
2023-02-20T06:59:54.485Z,96410.59
2023-02-20T07:02:40.375Z,96408.50
2023-02-20T07:05:26.138Z,96411.97
2023-02-20T07:08:12.028Z,96412.25
2023-02-20T07:10:58.011Z,96420.06
2023-02-20T07:13:43.915Z,96413.63
2023-02-20T07:16:31.371Z,96420.34
2023-02-20T07:19:17.366Z,96414.94
2023-02-20T07:22:02.945Z,96426.28
2023-02-20T07:24:53.052Z,96416.03
2023-02-20T07:27:39.265Z,96427.88
2023-02-20T07:30:25.631Z,96432.72
2023-02-20T07:33:11.385Z,96427.34
2023-02-20T07:35:57.308Z,96433.53
2023-02-20T07:38:43.600Z,96434.09
2023-02-20T07:41:32.491Z,96428.16
2023-02-20T07:44:18.267Z,96429.53
2023-02-20T07:47:04.220Z,96441.91
2023-02-20T07:49:49.972Z,96449.44
2023-02-20T07:52:36.072Z,96456.97
2023-02-20T07:55:22.072Z,96462.91
2023-02-20T07:58:08.079Z,96458.31
2023-02-20T08:00:57.750Z,96459.09
2023-02-20T08:03:43.598Z,96462.84
2023-02-20T08:06:29.687Z,96473.09
2023-02-20T08:09:15.575Z,96470.38
2023-02-20T08:12:01.406Z,96468.22
2023-02-20T08:14:50.821Z,96461.22
2023-02-20T08:17:45.869Z,96463.91
2023-02-20T08:20:34.452Z,96455.81
2023-02-20T08:23:22.491Z,96460.69
2023-02-20T08:26:08.795Z,96457.44
2023-02-20T08:28:54.479Z,96473.09
2023-02-20T08:31:40.557Z,96472.00
2023-02-20T08:34:26.624Z,96472.78
2023-02-20T08:37:12.918Z,96466.03
2023-02-20T08:39:58.564Z,96477.34
2023-02-20T08:42:44.297Z,96476.78
2023-02-20T08:45:30.028Z,96470.28
2023-02-20T08:48:15.911Z,96479.44
2023-02-20T08:51:01.902Z,96482.06
2023-02-20T08:53:50.222Z,96459.88
2023-02-20T08:56:38.721Z,96466.00
2023-02-20T08:59:26.727Z,96464.03
2023-02-20T09:02:29.259Z,96479.09
2023-02-20T09:05:16.309Z,96468.75
2023-02-20T09:08:03.355Z,96467.06
2023-02-20T09:10:49.000Z,96465.38
2023-02-20T09:13:42.737Z,96456.38
2023-02-20T09:16:28.867Z,96459.31
2023-02-20T09:19:15.346Z,96464.66
2023-02-20T09:22:05.613Z,96468.59
2023-02-20T09:24:52.009Z,96461.69
2023-02-20T09:27:38.222Z,96459.94
2023-02-20T09:30:25.149Z,96464.16
2023-02-20T09:33:11.052Z,96458.56
2023-02-20T09:35:56.884Z,96447.09
2023-02-20T09:38:43.791Z,96452.97
2023-02-20T09:42:05.453Z,96462.22
2023-02-20T09:45:11.420Z,96456.66
2023-02-20T09:48:20.791Z,96449.78
2023-02-20T09:51:18.912Z,96454.56
2023-02-20T09:54:12.098Z,96451.41
2023-02-20T09:57:00.443Z,96437.22
2023-02-20T09:59:49.937Z,96444.13
2023-02-20T10:02:46.944Z,96436.38
2023-02-20T10:05:33.439Z,96435.63
2023-02-20T10:08:21.516Z,96432.06
2023-02-20T10:11:10.168Z,96437.75
2023-02-20T10:14:24.358Z,96423.94
2023-02-20T10:17:24.286Z,96419.75
2023-02-20T10:20:31.563Z,96432.94
2023-02-20T10:23:29.137Z,96426.81
2023-02-20T10:26:32.880Z,96419.56
2023-02-20T10:29:22.895Z,96415.53
2023-02-20T10:32:39.205Z,96420.97
2023-02-20T10:35:30.749Z,96413.19
2023-02-20T10:38:21.109Z,96415.88
2023-02-20T10:41:14.238Z,96394.69
2023-02-20T10:44:09.732Z,96392.75
2023-02-20T10:47:10.414Z,96386.91
2023-02-20T10:50:10.018Z,96381.63
2023-02-20T10:53:00.921Z,96380.91
2023-02-20T10:56:01.195Z,96374.13
2023-02-20T10:58:55.918Z,96372.78
2023-02-20T11:01:43.661Z,96375.88
2023-02-20T11:04:36.381Z,96372.25
2023-02-20T11:07:23.857Z,96362.22
2023-02-20T11:10:09.898Z,96367.06
2023-02-20T11:12:59.200Z,96357.44
2023-02-20T11:15:45.679Z,96363.34
2023-02-20T11:18:39.137Z,96348.72
2023-02-20T11:21:35.877Z,96348.88
2023-02-20T11:24:27.251Z,96345.41
2023-02-20T11:27:20.049Z,96348.53
2023-02-20T11:30:32.128Z,96346.78
2023-02-20T11:33:21.566Z,96337.31
2023-02-20T11:36:19.153Z,96326.25
2023-02-20T11:39:22.671Z,96338.06
2023-02-20T11:42:15.960Z,96319.56
2023-02-20T11:45:17.121Z,96329.16
2023-02-20T11:48:14.428Z,96318.78
2023-02-20T11:51:00.441Z,96318.72
2023-02-20T11:54:16.532Z,96311.16
2023-02-20T11:57:25.514Z,96322.34
2023-02-20T12:00:29.855Z,96324.84
2023-02-20T12:03:24.714Z,96301.13
2023-02-20T12:06:38.885Z,96300.50
2023-02-20T12:09:26.596Z,96292.28
2023-02-20T12:12:14.303Z,96300.63
2023-02-20T12:15:00.328Z,96285.34
2023-02-20T12:17:59.314Z,96288.25
2023-02-20T12:20:52.774Z,96290.78
2023-02-20T12:23:56.828Z,96288.41
2023-02-20T12:26:54.658Z,96279.84
2023-02-20T12:30:08.756Z,96285.03
2023-02-20T12:33:39.233Z,96268.50
2023-02-20T12:36:24.974Z,96268.44
2023-02-20T12:39:45.658Z,96268.91
2023-02-20T12:42:40.602Z,96256.72
2023-02-20T12:46:01.912Z,96261.69
2023-02-20T12:49:00.159Z,96256.53
2023-02-20T12:52:16.701Z,96247.47
2023-02-20T12:55:19.275Z,96257.50
2023-02-20T12:58:17.221Z,96234.34
2023-02-20T13:01:06.929Z,96240.13
2023-02-20T13:04:11.440Z,96237.66
2023-02-20T13:07:06.713Z,96232.41
2023-02-20T13:10:03.544Z,96238.69
2023-02-20T13:12:50.791Z,96234.91
2023-02-20T13:15:43.371Z,96222.41
2023-02-20T13:18:36.062Z,96233.00
2023-02-20T13:21:25.321Z,96222.28
2023-02-20T13:24:20.291Z,96220.72
2023-02-20T13:27:08.058Z,96221.44
2023-02-20T13:30:02.221Z,96221.84
2023-02-20T13:32:48.424Z,96225.16
2023-02-20T13:35:46.408Z,96213.59
2023-02-20T13:38:32.588Z,96220.22
2023-02-20T13:41:18.506Z,96206.63
2023-02-20T13:44:29.708Z,96216.88
2023-02-20T13:47:27.460Z,96203.97
2023-02-20T13:50:31.935Z,96200.16
2023-02-20T13:53:17.721Z,96196.38
2023-02-20T13:56:03.822Z,96198.91
2023-02-20T13:58:51.216Z,96194.56
2023-02-20T14:01:56.630Z,96192.78
2023-02-20T14:04:55.067Z,96186.91
2023-02-20T14:07:44.983Z,96178.81
2023-02-20T14:10:38.382Z,96181.44
2023-02-20T14:13:38.967Z,96186.78
2023-02-20T14:16:35.374Z,96190.94
2023-02-20T14:19:24.704Z,96193.34
2023-02-20T14:22:21.873Z,96187.41
2023-02-20T14:25:25.858Z,96185.47
2023-02-20T14:28:15.584Z,96184.69
2023-02-20T14:31:20.237Z,96186.59
2023-02-20T14:34:13.632Z,96196.47
2023-02-20T14:37:31.474Z,96185.25
2023-02-20T14:40:29.311Z,96183.00
2023-02-20T14:43:16.706Z,96180.34
2023-02-20T14:46:23.744Z,96186.97
2023-02-20T14:49:13.212Z,96181.69
2023-02-20T14:52:22.879Z,96178.19
2023-02-20T14:55:17.504Z,96167.59
2023-02-20T14:58:19.006Z,96156.91
2023-02-20T15:01:38.962Z,96170.91
2023-02-20T15:04:26.240Z,96167.53
2023-02-20T15:07:12.472Z,96163.53
2023-02-20T15:10:02.019Z,96166.59
2023-02-20T15:12:57.177Z,96163.81
2023-02-20T15:15:48.238Z,96162.09
2023-02-20T15:18:36.767Z,96156.53
2023-02-20T15:21:41.073Z,96158.31
2023-02-20T15:24:36.112Z,96164.63
2023-02-20T15:27:24.691Z,96162.19
2023-02-20T15:30:17.509Z,96155.63
2023-02-20T15:33:03.534Z,96159.28
2023-02-20T15:35:49.893Z,96157.50
2023-02-20T15:38:37.223Z,96159.59
2023-02-20T15:41:24.163Z,96159.41
2023-02-20T15:44:10.735Z,96164.03
2023-02-20T15:46:56.752Z,96147.00
2023-02-20T15:49:43.254Z,96159.47
2023-02-20T15:52:30.334Z,96166.81
2023-02-20T15:55:18.508Z,96160.69
2023-02-20T15:58:14.060Z,96155.53
2023-02-20T16:01:03.794Z,96154.81
2023-02-20T16:03:53.361Z,96155.69
2023-02-20T16:06:43.658Z,96157.56
2023-02-20T16:09:29.465Z,96152.53
2023-02-20T16:12:25.249Z,96150.06
2023-02-20T16:15:21.988Z,96160.06
2023-02-20T16:18:09.708Z,96158.66
2023-02-20T16:20:55.912Z,96153.97
2023-02-20T16:23:43.368Z,96152.00
2023-02-20T16:26:31.611Z,96145.22
2023-02-20T16:29:22.824Z,96149.63
2023-02-20T16:32:34.890Z,96158.22
2023-02-20T16:35:21.055Z,96152.06
2023-02-20T16:38:07.136Z,96152.31
2023-02-20T16:40:54.966Z,96164.09
2023-02-20T16:43:41.150Z,96171.00
2023-02-20T16:46:38.016Z,96165.78
2023-02-20T16:49:26.859Z,96164.09
2023-02-20T16:52:20.376Z,96170.53
2023-02-20T16:55:30.566Z,96170.75
2023-02-20T16:58:16.836Z,96169.22
2023-02-20T17:01:03.090Z,96175.63
2023-02-20T17:03:49.456Z,96172.19
2023-02-20T17:06:35.605Z,96182.00
2023-02-20T17:09:23.235Z,96174.00
2023-02-20T17:12:13.435Z,96182.22
2023-02-20T17:14:59.346Z,96179.38
2023-02-20T17:17:45.806Z,96181.38
2023-02-20T17:20:32.750Z,96179.63
2023-02-20T17:23:20.140Z,96179.75
2023-02-20T17:26:05.959Z,96176.88
2023-02-20T17:28:51.810Z,96174.50
2023-02-20T17:31:37.806Z,96180.06
2023-02-20T17:34:23.956Z,96181.03
2023-02-20T17:37:10.589Z,96190.84
2023-02-20T17:40:00.584Z,96185.59
2023-02-20T17:42:46.522Z,96189.16
2023-02-20T17:45:32.642Z,96192.25
2023-02-20T17:48:18.535Z,96178.88
2023-02-20T17:51:04.283Z,96189.75
2023-02-20T17:53:50.390Z,96182.34
2023-02-20T17:56:43.757Z,96188.66
2023-02-20T17:59:30.592Z,96195.97
2023-02-20T18:02:17.689Z,96195.53
2023-02-20T18:05:04.168Z,96193.19
2023-02-20T18:07:50.258Z,96188.19
2023-02-20T18:10:36.219Z,96196.88
2023-02-20T18:13:22.244Z,96199.63
2023-02-20T18:16:08.463Z,96189.88
2023-02-20T18:18:55.486Z,96212.41
2023-02-20T18:21:42.616Z,96212.31
2023-02-20T18:24:30.246Z,96205.19
2023-02-20T18:27:19.215Z,96208.47
2023-02-20T18:30:06.022Z,96210.69
2023-02-20T18:32:52.289Z,96209.06
2023-02-20T18:35:38.843Z,96201.03
2023-02-20T18:38:25.628Z,96206.97
2023-02-20T18:41:12.349Z,96204.09
2023-02-20T18:43:59.069Z,96212.19
2023-02-20T18:46:45.365Z,96207.63
2023-02-20T18:49:31.555Z,96215.75
2023-02-20T18:52:20.021Z,96215.22
2023-02-20T18:55:06.503Z,96209.38
2023-02-20T18:57:53.952Z,96215.34
2023-02-20T19:00:40.796Z,96194.88
2023-02-20T19:03:27.069Z,96194.94
2023-02-20T19:06:44.214Z,96196.66
2023-02-20T19:09:34.280Z,96202.88
2023-02-20T19:12:20.389Z,96197.50
2023-02-20T19:15:09.314Z,96210.22
2023-02-20T19:17:55.418Z,96219.38
2023-02-20T19:20:41.159Z,96219.09
2023-02-20T19:23:28.610Z,96211.06
2023-02-20T19:26:15.436Z,96205.94
2023-02-20T19:29:02.524Z,96205.41
2023-02-20T19:31:48.719Z,96211.13
2023-02-20T19:34:34.672Z,96209.78
2023-02-20T19:37:24.857Z,96202.56
2023-02-20T19:40:11.253Z,96207.19
2023-02-20T19:42:57.541Z,96205.59
2023-02-20T19:45:43.426Z,96206.66
2023-02-20T19:48:30.236Z,96204.00
2023-02-20T19:51:18.297Z,96202.13
2023-02-20T19:54:04.308Z,96209.13
2023-02-20T19:56:52.348Z,96200.22
2023-02-20T19:59:38.491Z,96198.38
2023-02-20T20:02:25.605Z,96204.03
2023-02-20T20:05:11.992Z,96197.06
2023-02-20T20:07:58.512Z,96200.56
2023-02-20T20:10:45.608Z,96202.41
2023-02-20T20:13:32.056Z,96209.16
2023-02-20T20:16:17.912Z,96201.91
2023-02-20T20:19:05.713Z,96192.75
2023-02-20T20:21:51.634Z,96205.38
2023-02-20T20:24:37.604Z,96205.38
2023-02-20T20:27:23.806Z,96214.00
2023-02-20T20:30:12.481Z,96203.78
2023-02-20T20:32:58.940Z,96186.53
2023-02-20T20:35:45.257Z,96195.97
2023-02-20T20:38:32.618Z,96198.38
2023-02-20T20:41:36.136Z,96191.13
2023-02-20T20:44:30.589Z,96194.59
2023-02-20T20:47:17.595Z,96189.50
2023-02-20T20:50:04.657Z,96194.06
2023-02-20T20:52:51.158Z,96191.91
2023-02-20T20:55:38.288Z,96197.00
2023-02-20T20:58:24.384Z,96191.09
2023-02-20T21:01:10.873Z,96180.84
2023-02-20T21:03:57.081Z,96191.84
2023-02-20T21:06:43.194Z,96192.38
2023-02-20T21:09:29.387Z,96185.88
2023-02-20T21:12:16.061Z,96186.41
2023-02-20T21:15:03.241Z,96186.63
2023-02-20T21:17:49.601Z,96190.91
2023-02-20T21:20:36.198Z,96197.84
2023-02-20T21:23:22.136Z,96182.25
2023-02-20T21:26:08.029Z,96182.81
2023-02-20T21:28:55.326Z,96183.88
2023-02-20T21:31:43.399Z,96184.63
2023-02-20T21:34:29.481Z,96176.84
2023-02-20T21:37:16.898Z,96181.66
2023-02-20T21:40:03.897Z,96172.53
2023-02-20T21:43:09.546Z,96178.41
2023-02-20T21:45:55.802Z,96175.69
2023-02-20T21:48:42.154Z,96168.75
2023-02-20T21:51:28.087Z,96166.03
2023-02-20T21:54:19.051Z,96170.84
2023-02-20T21:57:05.404Z,96148.78
2023-02-20T21:59:51.243Z,96154.94
2023-02-20T22:02:37.138Z,96172.94
2023-02-20T22:05:22.988Z,96159.00
2023-02-20T22:08:32.286Z,96147.16
2023-02-20T22:11:36.869Z,96159.50
2023-02-20T22:14:41.445Z,96148.50
2023-02-20T22:17:46.134Z,96153.81
2023-02-20T22:20:50.542Z,96159.94
2023-02-20T22:23:56.310Z,96155.28
2023-02-20T22:27:01.042Z,96146.84
2023-02-20T22:30:05.789Z,96148.38
2023-02-20T22:33:13.513Z,96154.75
2023-02-20T22:36:17.973Z,96150.13
2023-02-20T22:39:24.222Z,96138.53
2023-02-20T22:42:34.556Z,96146.25
2023-02-20T22:45:39.881Z,96138.41
2023-02-20T22:48:44.837Z,96135.72
2023-02-20T22:51:49.457Z,96141.84
2023-02-20T22:55:04.436Z,96138.38
2023-02-20T22:58:09.883Z,96122.25
2023-02-20T23:01:14.524Z,96124.91
2023-02-20T23:04:21.105Z,96108.22
2023-02-20T23:07:26.626Z,96114.06
2023-02-20T23:10:31.063Z,96104.13
2023-02-20T23:13:35.665Z,96124.84
2023-02-20T23:16:43.445Z,96115.75
2023-02-20T23:19:47.935Z,96122.66
2023-02-20T23:22:53.244Z,96113.56
2023-02-20T23:25:57.681Z,96109.84
2023-02-20T23:29:02.163Z,96106.56
2023-02-20T23:32:06.638Z,96106.56
2023-02-20T23:35:11.627Z,96107.63
2023-02-20T23:38:16.118Z,96102.75
2023-02-20T23:41:21.534Z,96104.28
2023-02-20T23:44:26.590Z,96099.44
2023-02-20T23:47:31.198Z,96104.19
2023-02-20T23:50:35.563Z,96096.88
2023-02-20T23:53:40.159Z,96098.72
2023-02-20T23:56:45.408Z,96091.13
2023-02-20T23:59:49.963Z,96088.09
